createdAt,value
2023-04-03T00:00:43.752Z,101048.80
2023-04-03T00:03:22.526Z,101050.30
2023-04-03T00:05:54.850Z,101054.23
2023-04-03T00:08:27.277Z,101055.78
2023-04-03T00:10:59.493Z,101059.91
2023-04-03T00:13:31.889Z,101060.70
2023-04-03T00:16:04.806Z,101066.05
2023-04-03T00:18:37.365Z,101064.27
2023-04-03T00:21:11.898Z,101065.55
2023-04-03T00:23:44.213Z,101064.33
2023-04-03T00:26:16.395Z,101059.90
2023-04-03T00:28:48.672Z,101063.16
2023-04-03T00:31:20.997Z,101065.58
2023-04-03T00:33:53.220Z,101065.65
2023-04-03T00:36:25.676Z,101062.61
2023-04-03T00:38:57.953Z,101063.92
2023-04-03T00:41:30.173Z,101064.29
2023-04-03T00:44:02.452Z,101064.84
2023-04-03T00:46:34.807Z,101066.02
2023-04-03T00:49:07.074Z,101067.38
2023-04-03T00:51:39.376Z,101067.30
2023-04-03T00:54:11.990Z,101068.46
2023-04-03T00:56:45.353Z,101068.55
2023-04-03T00:59:24.187Z,101067.49
2023-04-03T01:01:58.120Z,101065.77
2023-04-03T01:04:35.920Z,101071.44
2023-04-03T01:07:12.586Z,101072.04
2023-04-03T01:09:46.793Z,101072.10
2023-04-03T01:12:21.646Z,101074.25
2023-04-03T01:14:55.745Z,101075.70
2023-04-03T01:17:36.532Z,101077.09
2023-04-03T01:20:47.329Z,101081.30
2023-04-03T01:23:36.403Z,101085.46
2023-04-03T01:26:10.114Z,101086.25
2023-04-03T01:28:42.609Z,101086.72
2023-04-03T01:31:22.419Z,101089.47
2023-04-03T01:33:55.486Z,101090.84
2023-04-03T01:36:31.122Z,101093.44
2023-04-03T01:39:03.610Z,101097.17
2023-04-03T01:41:35.913Z,101096.24
2023-04-03T01:44:15.822Z,101098.45
2023-04-03T01:46:48.611Z,101100.21
2023-04-03T01:49:20.958Z,101098.89
2023-04-03T01:51:53.292Z,101098.56
2023-04-03T01:54:25.564Z,101103.70
2023-04-03T01:56:57.904Z,101102.30
2023-04-03T01:59:30.442Z,101101.92
2023-04-03T02:02:02.761Z,101103.48
2023-04-03T02:04:35.090Z,101107.58
2023-04-03T02:07:07.362Z,101108.06
2023-04-03T02:09:39.559Z,101110.83
2023-04-03T02:12:12.012Z,101110.79
2023-04-03T02:14:44.396Z,101114.38
2023-04-03T02:17:17.619Z,101115.72
2023-04-03T02:19:49.931Z,101115.92
2023-04-03T02:22:22.407Z,101116.57
2023-04-03T02:24:54.602Z,101116.44
2023-04-03T02:27:26.971Z,101114.85
2023-04-03T02:29:59.359Z,101117.21
2023-04-03T02:32:31.849Z,101118.48
2023-04-03T02:35:04.329Z,101120.98
2023-04-03T02:37:37.889Z,101124.11
2023-04-03T02:40:13.043Z,101128.36
2023-04-03T02:42:45.286Z,101128.00
2023-04-03T02:45:18.011Z,101134.40
2023-04-03T02:47:50.347Z,101137.05
2023-04-03T02:50:22.652Z,101142.89
2023-04-03T02:52:54.879Z,101138.17
2023-04-03T02:55:27.454Z,101140.13
2023-04-03T02:58:00.553Z,101140.96
2023-04-03T03:00:33.218Z,101141.58
2023-04-03T03:03:05.994Z,101141.09
2023-04-03T03:05:38.551Z,101143.88
2023-04-03T03:08:11.833Z,101141.94
2023-04-03T03:10:44.099Z,101139.30
2023-04-03T03:13:16.633Z,101142.52
2023-04-03T03:15:48.985Z,101143.77
2023-04-03T03:18:21.394Z,101144.13
2023-04-03T03:20:57.007Z,101145.14
2023-04-03T03:23:31.685Z,101147.32
2023-04-03T03:26:06.370Z,101145.59
2023-04-03T03:28:41.512Z,101143.74
2023-04-03T03:31:14.606Z,101145.52
2023-04-03T03:33:46.966Z,101148.75
2023-04-03T03:36:19.203Z,101146.94
2023-04-03T03:38:51.438Z,101149.22
2023-04-03T03:41:23.948Z,101154.46
2023-04-03T03:43:56.419Z,101150.85
2023-04-03T03:46:29.406Z,101157.30
2023-04-03T03:49:01.770Z,101153.84
2023-04-03T03:51:34.008Z,101159.95
2023-04-03T03:54:06.432Z,101164.66
2023-04-03T03:56:38.839Z,101167.23
2023-04-03T03:59:13.348Z,101169.91
2023-04-03T04:01:46.044Z,101174.59
2023-04-03T04:04:18.464Z,101175.08
2023-04-03T04:06:51.644Z,101177.85
2023-04-03T04:09:24.320Z,101176.59
2023-04-03T04:11:56.676Z,101177.04
2023-04-03T04:14:28.904Z,101176.64
2023-04-03T04:17:03.515Z,101173.54
2023-04-03T04:19:36.322Z,101174.95
2023-04-03T04:22:08.630Z,101178.66
2023-04-03T04:24:41.380Z,101179.58
2023-04-03T04:27:13.877Z,101181.85
2023-04-03T04:29:46.218Z,101187.73
2023-04-03T04:32:18.587Z,101189.32
2023-04-03T04:34:51.209Z,101187.39
2023-04-03T04:37:23.606Z,101189.74
2023-04-03T04:39:56.038Z,101188.95
2023-04-03T04:42:28.619Z,101193.71
2023-04-03T04:45:00.873Z,101192.95
2023-04-03T04:47:33.539Z,101197.51
2023-04-03T04:50:06.621Z,101196.73
2023-04-03T04:52:39.361Z,101199.20
2023-04-03T04:55:12.324Z,101204.83
2023-04-03T04:57:44.642Z,101206.63
2023-04-03T05:00:19.884Z,101210.06
2023-04-03T05:02:52.552Z,101210.39
2023-04-03T05:05:25.185Z,101214.20
2023-04-03T05:07:57.909Z,101215.02
2023-04-03T05:10:30.859Z,101214.05
2023-04-03T05:13:03.058Z,101218.66
2023-04-03T05:15:35.559Z,101216.97
2023-04-03T05:18:09.253Z,101219.54
2023-04-03T05:20:41.786Z,101219.57
2023-04-03T05:23:14.609Z,101220.02
2023-04-03T05:25:48.092Z,101221.62
2023-04-03T05:28:20.606Z,101220.16
2023-04-03T05:30:57.897Z,101222.71
2023-04-03T05:33:31.432Z,101222.28
2023-04-03T05:36:08.526Z,101228.73
2023-04-03T05:38:44.032Z,101228.17
2023-04-03T05:41:16.911Z,101230.23
2023-04-03T05:43:50.621Z,101235.70
2023-04-03T05:46:23.427Z,101236.21
2023-04-03T05:48:58.480Z,101233.81
2023-04-03T05:51:36.545Z,101231.77
2023-04-03T05:54:19.997Z,101232.84
2023-04-03T05:56:53.277Z,101230.63
2023-04-03T05:59:26.231Z,101232.12
2023-04-03T06:01:59.144Z,101234.29
2023-04-03T06:04:31.690Z,101235.58
2023-04-03T06:07:04.663Z,101238.08
2023-04-03T06:09:37.416Z,101239.36
2023-04-03T06:12:10.879Z,101239.05
2023-04-03T06:14:43.357Z,101239.89
2023-04-03T06:17:16.415Z,101237.80
2023-04-03T06:19:49.372Z,101236.86
2023-04-03T06:22:22.368Z,101241.98
2023-04-03T06:24:54.569Z,101240.29
2023-04-03T06:27:26.800Z,101238.92
2023-04-03T06:29:59.021Z,101245.45
2023-04-03T06:32:31.356Z,101246.19
2023-04-03T06:35:04.253Z,101246.71
2023-04-03T06:37:36.584Z,101254.48
2023-04-03T06:40:17.770Z,101261.96
2023-04-03T06:42:50.350Z,101262.56
2023-04-03T06:45:23.629Z,101263.16
2023-04-03T06:47:56.725Z,101267.19
2023-04-03T06:50:29.194Z,101269.60
2023-04-03T06:53:02.053Z,101270.48
2023-04-03T06:55:34.334Z,101270.35
2023-04-03T06:58:06.665Z,101274.14
2023-04-03T07:00:39.282Z,101275.32
2023-04-03T07:03:11.775Z,101280.26
2023-04-03T07:05:45.925Z,101282.77
2023-04-03T07:08:18.176Z,101282.83
2023-04-03T07:10:51.334Z,101283.64
2023-04-03T07:13:23.568Z,101281.16
2023-04-03T07:15:56.032Z,101291.26
2023-04-03T07:18:28.567Z,101288.67
2023-04-03T07:21:01.458Z,101293.42
2023-04-03T07:23:33.898Z,101288.48
2023-04-03T07:26:06.738Z,101288.88
2023-04-03T07:28:41.269Z,101293.05
2023-04-03T07:31:16.119Z,101295.20
2023-04-03T07:33:47.313Z,101295.69
2023-04-03T07:36:23.220Z,101295.36
2023-04-03T07:38:55.565Z,101297.21
2023-04-03T07:41:27.926Z,101307.05
2023-04-03T07:44:00.230Z,101308.65
2023-04-03T07:46:32.574Z,101304.23
2023-04-03T07:49:04.865Z,101308.88
2023-04-03T07:51:37.011Z,101310.61
2023-04-03T07:54:09.375Z,101301.48
2023-04-03T07:56:41.763Z,101305.70
2023-04-03T07:59:14.006Z,101307.98
2023-04-03T08:01:46.258Z,101305.55
2023-04-03T08:04:18.535Z,101307.77
2023-04-03T08:06:50.804Z,101309.52
2023-04-03T08:09:23.262Z,101308.95
2023-04-03T08:11:55.501Z,101308.20
2023-04-03T08:14:27.713Z,101310.30
2023-04-03T08:17:00.076Z,101309.36
2023-04-03T08:19:32.492Z,101307.55
2023-04-03T08:22:06.114Z,101304.54
2023-04-03T08:24:39.373Z,101306.55
2023-04-03T08:27:15.511Z,101306.35
2023-04-03T08:29:48.618Z,101310.39
2023-04-03T08:32:21.183Z,101314.15
2023-04-03T08:34:53.740Z,101311.71
2023-04-03T08:37:26.557Z,101311.75
2023-04-03T08:39:58.919Z,101311.80
2023-04-03T08:42:44.162Z,101314.05
2023-04-03T08:45:19.653Z,101317.45
2023-04-03T08:47:58.570Z,101317.55
2023-04-03T08:50:38.227Z,101315.95
2023-04-03T08:53:16.893Z,101318.25
2023-04-03T08:55:51.294Z,101323.97
2023-04-03T08:58:25.453Z,101324.05
2023-04-03T09:01:02.000Z,101329.20
2023-04-03T09:03:36.526Z,101324.79
2023-04-03T09:06:16.230Z,101322.23
2023-04-03T09:08:57.807Z,101322.42
2023-04-03T09:11:38.692Z,101321.17
2023-04-03T09:14:23.688Z,101319.73
2023-04-03T09:16:59.146Z,101315.10
2023-04-03T09:19:44.140Z,101321.61
2023-04-03T09:22:22.764Z,101323.80
2023-04-03T09:25:01.126Z,101316.80
2023-04-03T09:27:33.474Z,101316.34
2023-04-03T09:30:08.112Z,101316.52
2023-04-03T09:32:40.297Z,101317.80
2023-04-03T09:35:27.379Z,101323.46
2023-04-03T09:38:23.657Z,101323.66
2023-04-03T09:41:08.835Z,101321.00
2023-04-03T09:43:53.625Z,101317.34
2023-04-03T09:46:35.079Z,101321.00
2023-04-03T09:49:13.100Z,101322.81
2023-04-03T09:51:46.362Z,101319.23
2023-04-03T09:54:44.319Z,101323.41
2023-04-03T09:57:17.426Z,101320.88
2023-04-03T10:00:00.720Z,101320.24
2023-04-03T10:02:38.270Z,101318.40
2023-04-03T10:05:34.372Z,101313.59
2023-04-03T10:08:24.627Z,101315.67
2023-04-03T10:11:18.289Z,101311.99
2023-04-03T10:14:00.648Z,101310.55
2023-04-03T10:16:43.264Z,101298.24
2023-04-03T10:19:32.250Z,101300.34
2023-04-03T10:22:15.616Z,101302.59
2023-04-03T10:24:55.928Z,101305.89
2023-04-03T10:27:39.539Z,101307.37
2023-04-03T10:30:30.994Z,101299.88
2023-04-03T10:33:16.948Z,101300.60
2023-04-03T10:36:02.406Z,101296.39
2023-04-03T10:38:45.513Z,101289.58
2023-04-03T10:41:26.288Z,101281.73
2023-04-03T10:44:07.582Z,101284.00
2023-04-03T10:46:44.382Z,101289.78
2023-04-03T10:49:38.007Z,101286.16
2023-04-03T10:52:19.289Z,101279.70
2023-04-03T10:55:00.281Z,101278.29
2023-04-03T10:57:33.051Z,101281.19
2023-04-03T11:00:10.590Z,101279.08
2023-04-03T11:02:50.626Z,101279.11
2023-04-03T11:05:33.681Z,101273.02
2023-04-03T11:08:13.686Z,101267.52
2023-04-03T11:10:47.791Z,101272.20
2023-04-03T11:13:24.436Z,101271.62
2023-04-03T11:15:59.220Z,101268.46
2023-04-03T11:18:39.945Z,101273.07
2023-04-03T11:21:18.707Z,101279.64
2023-04-03T11:23:52.365Z,101276.98
2023-04-03T11:26:29.499Z,101266.17
2023-04-03T11:29:08.185Z,101272.91
2023-04-03T11:32:06.714Z,101270.61
2023-04-03T11:34:42.817Z,101259.82
2023-04-03T11:37:24.282Z,101255.15
2023-04-03T11:40:01.781Z,101262.88
2023-04-03T11:42:38.988Z,101264.19
2023-04-03T11:45:28.895Z,101260.08
2023-04-03T11:48:16.693Z,101254.34
2023-04-03T11:50:55.631Z,101254.10
2023-04-03T11:53:40.324Z,101253.82
2023-04-03T11:56:33.960Z,101236.07
2023-04-03T11:59:28.954Z,101246.88
2023-04-03T12:02:01.654Z,101240.19
2023-04-03T12:04:34.037Z,101232.45
2023-04-03T12:07:28.741Z,101233.77
2023-04-03T12:10:04.340Z,101234.42
2023-04-03T12:12:42.674Z,101237.70
2023-04-03T12:15:51.053Z,101238.11
2023-04-03T12:18:59.699Z,101224.69
2023-04-03T12:22:10.097Z,101227.86
2023-04-03T12:24:43.974Z,101222.88
2023-04-03T12:27:41.394Z,101229.96
2023-04-03T12:30:27.578Z,101236.58
2023-04-03T12:33:26.851Z,101231.88
2023-04-03T12:36:10.500Z,101218.08
2023-04-03T12:39:18.200Z,101213.71
2023-04-03T12:42:00.660Z,101223.80
2023-04-03T12:44:46.595Z,101220.81
2023-04-03T12:47:34.230Z,101217.94
2023-04-03T12:50:20.706Z,101216.89
2023-04-03T12:52:57.210Z,101211.23
2023-04-03T12:55:29.733Z,101217.23
2023-04-03T12:58:18.180Z,101216.89
2023-04-03T13:01:00.772Z,101216.13
2023-04-03T13:03:33.867Z,101213.74
2023-04-03T13:06:06.817Z,101212.09
2023-04-03T13:08:39.227Z,101211.58
2023-04-03T13:11:14.611Z,101204.52
2023-04-03T13:13:58.380Z,101211.45
2023-04-03T13:16:31.399Z,101219.86
2023-04-03T13:19:03.641Z,101215.23
2023-04-03T13:21:37.226Z,101217.48
2023-04-03T13:24:15.198Z,101212.86
2023-04-03T13:26:48.087Z,101211.27
2023-04-03T13:29:30.941Z,101216.04
2023-04-03T13:32:07.284Z,101214.78
2023-04-03T13:34:45.857Z,101218.65
2023-04-03T13:37:29.682Z,101214.10
2023-04-03T13:40:06.633Z,101211.52
2023-04-03T13:42:42.352Z,101213.56
2023-04-03T13:45:22.012Z,101217.97
2023-04-03T13:47:56.984Z,101216.37
2023-04-03T13:50:30.181Z,101212.63
2023-04-03T13:53:13.433Z,101210.58
2023-04-03T13:56:00.239Z,101214.13
2023-04-03T13:58:35.561Z,101216.19
2023-04-03T14:01:19.292Z,101221.61
2023-04-03T14:03:57.603Z,101223.17
2023-04-03T14:06:30.990Z,101221.73
2023-04-03T14:09:03.711Z,101220.77
2023-04-03T14:11:37.719Z,101217.95
2023-04-03T14:14:16.983Z,101215.52
2023-04-03T14:16:56.611Z,101212.89
2023-04-03T14:19:33.032Z,101212.67
2023-04-03T14:22:18.640Z,101216.98
2023-04-03T14:24:51.815Z,101218.84
2023-04-03T14:27:27.888Z,101212.02
2023-04-03T14:30:01.488Z,101215.85
2023-04-03T14:32:33.769Z,101221.08
2023-04-03T14:35:07.841Z,101217.47
2023-04-03T14:37:40.267Z,101210.59
2023-04-03T14:40:18.423Z,101215.38
2023-04-03T14:42:51.778Z,101213.19
2023-04-03T14:45:25.245Z,101215.23
2023-04-03T14:47:59.622Z,101213.87
2023-04-03T14:50:31.904Z,101215.15
2023-04-03T14:53:04.180Z,101224.17
2023-04-03T14:55:36.479Z,101223.27
2023-04-03T14:58:10.700Z,101220.06
2023-04-03T15:00:42.970Z,101224.73
2023-04-03T15:03:19.942Z,101223.95
2023-04-03T15:05:53.212Z,101221.08
2023-04-03T15:08:28.262Z,101224.08
2023-04-03T15:11:02.140Z,101224.57
2023-04-03T15:13:34.541Z,101222.14
2023-04-03T15:16:08.326Z,101221.73
2023-04-03T15:18:41.472Z,101216.13
2023-04-03T15:21:13.983Z,101216.77
2023-04-03T15:23:46.306Z,101218.89
2023-04-03T15:26:18.598Z,101222.04
2023-04-03T15:28:50.861Z,101222.06
2023-04-03T15:31:23.161Z,101223.52
2023-04-03T15:33:55.693Z,101223.84
2023-04-03T15:36:34.003Z,101224.02
2023-04-03T15:39:07.734Z,101224.96
2023-04-03T15:41:40.077Z,101228.56
2023-04-03T15:44:13.268Z,101229.04
2023-04-03T15:46:45.956Z,101231.17
2023-04-03T15:49:18.430Z,101230.88
2023-04-03T15:51:50.755Z,101232.84
2023-04-03T15:54:25.092Z,101239.55
2023-04-03T15:56:57.374Z,101238.31
2023-04-03T15:59:30.155Z,101237.70
2023-04-03T16:02:06.110Z,101237.98
2023-04-03T16:04:38.381Z,101236.51
2023-04-03T16:07:10.729Z,101236.16
2023-04-03T16:09:43.025Z,101238.59
2023-04-03T16:12:15.680Z,101237.98
2023-04-03T16:14:47.923Z,101238.65
2023-04-03T16:17:20.249Z,101243.32
2023-04-03T16:19:52.469Z,101246.64
2023-04-03T16:22:26.165Z,101250.77
2023-04-03T16:24:58.554Z,101249.08
2023-04-03T16:27:32.059Z,101254.23
2023-04-03T16:30:04.524Z,101254.45
2023-04-03T16:32:38.041Z,101259.42
2023-04-03T16:35:12.061Z,101255.40
2023-04-03T16:37:44.427Z,101256.95
2023-04-03T16:40:16.856Z,101258.07
2023-04-03T16:42:49.077Z,101259.11
2023-04-03T16:45:21.550Z,101254.73
2023-04-03T16:47:53.871Z,101258.17
2023-04-03T16:50:26.310Z,101257.41
2023-04-03T16:52:58.561Z,101257.61
2023-04-03T16:55:30.733Z,101261.68
2023-04-03T16:58:03.094Z,101263.83
2023-04-03T17:00:35.532Z,101263.17
2023-04-03T17:03:07.938Z,101264.69
2023-04-03T17:05:40.394Z,101263.77
2023-04-03T17:08:14.963Z,101265.63
2023-04-03T17:10:48.326Z,101264.48
2023-04-03T17:13:21.470Z,101265.02
2023-04-03T17:15:53.727Z,101268.84
2023-04-03T17:18:26.639Z,101271.23
2023-04-03T17:20:59.114Z,101278.36
2023-04-03T17:23:31.949Z,101278.49
2023-04-03T17:26:04.934Z,101283.77
2023-04-03T17:28:37.121Z,101281.35
2023-04-03T17:31:09.676Z,101283.70
2023-04-03T17:33:41.954Z,101279.55
2023-04-03T17:36:14.567Z,101279.61
2023-04-03T17:38:48.502Z,101281.65
2023-04-03T17:41:20.929Z,101281.62
2023-04-03T17:43:56.503Z,101285.30
2023-04-03T17:46:30.987Z,101288.58
2023-04-03T17:49:04.792Z,101290.07
2023-04-03T17:51:36.997Z,101289.77
2023-04-03T17:54:09.493Z,101290.41
2023-04-03T17:56:47.814Z,101288.76
2023-04-03T17:59:20.787Z,101288.33
2023-04-03T18:01:53.471Z,101288.20
2023-04-03T18:04:25.816Z,101286.30
2023-04-03T18:06:58.580Z,101285.42
2023-04-03T18:09:35.125Z,101283.94
2023-04-03T18:12:09.845Z,101284.78
2023-04-03T18:14:43.009Z,101286.08
2023-04-03T18:17:15.574Z,101283.50
2023-04-03T18:19:48.464Z,101285.16
2023-04-03T18:22:23.928Z,101285.77
2023-04-03T18:24:58.040Z,101286.89
2023-04-03T18:27:30.934Z,101287.34
2023-04-03T18:30:08.680Z,101289.21
2023-04-03T18:32:41.337Z,101289.89
2023-04-03T18:35:15.044Z,101293.27
2023-04-03T18:37:47.306Z,101287.71
2023-04-03T18:40:19.911Z,101287.67
2023-04-03T18:42:52.307Z,101285.59
2023-04-03T18:45:26.919Z,101287.33
2023-04-03T18:47:59.777Z,101286.11
2023-04-03T18:50:32.915Z,101287.23
2023-04-03T18:53:05.254Z,101287.98
2023-04-03T18:55:37.499Z,101288.38
2023-04-03T18:58:09.778Z,101288.66
2023-04-03T19:00:43.484Z,101290.01
2023-04-03T19:03:17.072Z,101287.83
2023-04-03T19:05:49.789Z,101287.80
2023-04-03T19:08:22.395Z,101287.11
2023-04-03T19:10:54.725Z,101286.71
2023-04-03T19:13:28.240Z,101287.48
2023-04-03T19:16:01.554Z,101288.72
2023-04-03T19:18:33.870Z,101289.46
2023-04-03T19:21:06.821Z,101289.15
2023-04-03T19:23:41.458Z,101291.58
2023-04-03T19:26:14.682Z,101292.92
2023-04-03T19:28:50.706Z,101288.36
2023-04-03T19:31:24.454Z,101289.27
2023-04-03T19:33:57.354Z,101290.36
2023-04-03T19:36:29.640Z,101290.63
2023-04-03T19:39:01.879Z,101292.40
2023-04-03T19:41:36.903Z,101290.73
2023-04-03T19:44:08.386Z,101290.70
2023-04-03T19:46:40.824Z,101292.45
2023-04-03T19:49:24.207Z,101293.55
2023-04-03T19:51:56.715Z,101295.10
2023-04-03T19:54:28.957Z,101295.44
2023-04-03T19:57:02.040Z,101296.58
2023-04-03T19:59:34.297Z,101292.84
2023-04-03T20:02:06.798Z,101290.80
2023-04-03T20:04:39.514Z,101291.28
2023-04-03T20:07:12.793Z,101290.64
2023-04-03T20:09:45.166Z,101288.98
2023-04-03T20:12:17.548Z,101290.98
2023-04-03T20:14:49.816Z,101287.80
2023-04-03T20:17:22.087Z,101287.53
2023-04-03T20:19:54.301Z,101285.64
2023-04-03T20:22:26.610Z,101283.27
2023-04-03T20:25:06.079Z,101280.70
2023-04-03T20:27:39.723Z,101277.84
2023-04-03T20:30:15.055Z,101277.19
2023-04-03T20:32:48.603Z,101280.38
2023-04-03T20:35:22.298Z,101277.63
2023-04-03T20:37:54.708Z,101278.61
2023-04-03T20:40:27.559Z,101278.95
2023-04-03T20:42:59.904Z,101279.35
2023-04-03T20:45:32.714Z,101276.30
2023-04-03T20:48:06.010Z,101278.05
2023-04-03T20:50:38.660Z,101278.53
2023-04-03T20:53:11.085Z,101277.04
2023-04-03T20:55:43.353Z,101277.81
2023-04-03T20:58:15.562Z,101277.86
2023-04-03T21:00:47.816Z,101280.41
2023-04-03T21:03:20.421Z,101279.65
2023-04-03T21:06:00.489Z,101280.96
2023-04-03T21:09:07.963Z,101278.77
2023-04-03T21:12:15.425Z,101276.73
2023-04-03T21:15:22.305Z,101276.02
2023-04-03T21:18:19.880Z,101277.05
2023-04-03T21:20:52.131Z,101277.42
2023-04-03T21:23:24.850Z,101276.32
2023-04-03T21:25:57.574Z,101277.96
2023-04-03T21:28:29.826Z,101277.86
2023-04-03T21:31:02.158Z,101275.60
2023-04-03T21:33:34.485Z,101274.53
2023-04-03T21:36:07.910Z,101271.46
2023-04-03T21:38:40.800Z,101269.17
2023-04-03T21:41:13.050Z,101266.31
2023-04-03T21:43:48.348Z,101268.30
2023-04-03T21:46:20.770Z,101270.14
2023-04-03T21:48:53.038Z,101271.02
2023-04-03T21:51:25.400Z,101271.15
2023-04-03T21:53:58.183Z,101269.48
2023-04-03T21:56:31.602Z,101267.95
2023-04-03T21:59:05.128Z,101268.98
2023-04-03T22:01:37.590Z,101270.18
2023-04-03T22:04:09.918Z,101269.70
2023-04-03T22:06:42.257Z,101263.88
2023-04-03T22:09:14.769Z,101266.48
2023-04-03T22:11:49.134Z,101265.80
2023-04-03T22:14:21.379Z,101264.09
2023-04-03T22:16:54.119Z,101265.23
2023-04-03T22:19:26.444Z,101263.95
2023-04-03T22:21:58.640Z,101263.91
2023-04-03T22:24:31.206Z,101257.80
2023-04-03T22:27:03.418Z,101258.75
2023-04-03T22:29:35.607Z,101259.23
2023-04-03T22:32:08.339Z,101257.76
2023-04-03T22:34:41.276Z,101258.41
2023-04-03T22:37:13.631Z,101257.78
2023-04-03T22:39:45.913Z,101262.02
2023-04-03T22:42:18.234Z,101256.19
2023-04-03T22:44:50.490Z,101252.80
2023-04-03T22:47:23.011Z,101253.69
2023-04-03T22:49:55.180Z,101252.77
2023-04-03T22:52:27.398Z,101251.13
2023-04-03T22:55:06.252Z,101248.29
2023-04-03T22:57:48.842Z,101247.69
2023-04-03T23:00:21.921Z,101244.30
2023-04-03T23:02:54.224Z,101240.85
2023-04-03T23:05:26.785Z,101237.48
2023-04-03T23:07:59.096Z,101239.41
2023-04-03T23:10:31.516Z,101233.42
2023-04-03T23:13:03.786Z,101238.83
2023-04-03T23:15:36.053Z,101240.10
2023-04-03T23:18:08.575Z,101235.59
2023-04-03T23:20:41.103Z,101235.58
2023-04-03T23:23:13.622Z,101235.11
2023-04-03T23:25:45.645Z,101236.04
2023-04-03T23:28:18.160Z,101230.91
2023-04-03T23:30:51.184Z,101232.90
2023-04-03T23:33:23.360Z,101231.50
2023-04-03T23:35:55.726Z,101230.43
2023-04-03T23:38:28.441Z,101227.73
2023-04-03T23:41:00.776Z,101222.16
2023-04-03T23:43:33.195Z,101226.10
2023-04-03T23:46:05.469Z,101225.48
2023-04-03T23:48:38.062Z,101225.70
2023-04-03T23:51:10.289Z,101222.14
2023-04-03T23:53:42.528Z,101217.78
2023-04-03T23:56:14.728Z,101217.27
2023-04-03T23:58:46.885Z,101213.06
